createdAt,value
2019-02-11T00:00:34.943Z,992.77
2019-02-11T00:01:34.941Z,992.77
2019-02-11T00:02:34.922Z,992.87
2019-02-11T00:03:34.910Z,992.88
2019-02-11T00:04:34.911Z,992.90
2019-02-11T00:05:34.892Z,993.00
2019-02-11T00:06:34.880Z,993.05
2019-02-11T00:07:34.867Z,993.05
2019-02-11T00:08:34.876Z,993.10
2019-02-11T00:09:34.858Z,993.07
2019-02-11T00:10:34.832Z,993.11
2019-02-11T00:11:34.824Z,993.13
2019-02-11T00:12:34.811Z,993.13
2019-02-11T00:13:34.801Z,993.20
2019-02-11T00:14:34.799Z,993.28
2019-02-11T00:15:34.780Z,993.24
2019-02-11T00:16:34.811Z,993.22
2019-02-11T00:17:34.755Z,993.21
2019-02-11T00:18:34.748Z,993.27
2019-02-11T00:19:34.745Z,993.32
2019-02-11T00:20:34.722Z,993.39
2019-02-11T00:21:34.713Z,993.40
2019-02-11T00:22:34.702Z,993.46
2019-02-11T00:23:34.691Z,993.49
2019-02-11T00:24:34.706Z,993.54
2019-02-11T00:25:34.668Z,993.61
2019-02-11T00:26:34.658Z,993.59
2019-02-11T00:27:34.647Z,993.64
2019-02-11T00:28:34.647Z,993.67
2019-02-11T00:29:34.636Z,993.71
2019-02-11T00:30:34.614Z,993.77
2019-02-11T00:31:34.623Z,993.81
2019-02-11T00:32:34.594Z,993.81
2019-02-11T00:33:34.582Z,993.86
2019-02-11T00:34:34.581Z,993.88
2019-02-11T00:35:34.564Z,993.94
2019-02-11T00:36:34.547Z,993.95
2019-02-11T00:37:34.537Z,993.95
2019-02-11T00:38:34.527Z,993.98
2019-02-11T00:39:34.525Z,994.01
2019-02-11T00:40:34.516Z,994.05
2019-02-11T00:41:34.491Z,994.09
2019-02-11T00:42:34.484Z,994.11
2019-02-11T00:43:34.472Z,994.13
2019-02-11T00:44:34.491Z,994.17
2019-02-11T00:45:34.451Z,994.20
2019-02-11T00:46:34.437Z,994.22
2019-02-11T00:47:34.426Z,994.27
2019-02-11T00:48:34.420Z,994.29
2019-02-11T00:49:34.433Z,994.34
2019-02-11T00:50:34.394Z,994.35
2019-02-11T00:51:34.383Z,994.41
2019-02-11T00:52:34.387Z,994.49
2019-02-11T00:53:34.361Z,994.49
2019-02-11T00:54:34.360Z,994.57
2019-02-11T00:55:34.354Z,994.59
2019-02-11T00:56:34.327Z,994.56
2019-02-11T00:57:34.319Z,994.63
2019-02-11T00:58:34.304Z,994.64
2019-02-11T00:59:34.295Z,994.65
2019-02-11T01:00:34.293Z,994.68
2019-02-11T01:01:34.272Z,994.73
2019-02-11T01:02:34.263Z,994.70
2019-02-11T01:03:34.254Z,994.76
2019-02-11T01:04:34.237Z,994.77
2019-02-11T01:05:34.247Z,994.78
2019-02-11T01:06:34.218Z,994.79
2019-02-11T01:07:34.206Z,994.80
2019-02-11T01:08:34.194Z,994.84
2019-02-11T01:09:34.190Z,994.83
2019-02-11T01:10:34.182Z,994.82
2019-02-11T01:11:34.162Z,994.88
2019-02-11T01:12:34.153Z,994.84
2019-02-11T01:13:34.156Z,994.92
2019-02-11T01:14:34.128Z,994.93
2019-02-11T01:15:34.129Z,994.98
2019-02-11T01:16:34.107Z,994.99
2019-02-11T01:17:34.115Z,994.99
2019-02-11T01:18:34.086Z,995.04
2019-02-11T01:19:34.075Z,995.07
2019-02-11T01:20:34.074Z,995.07
2019-02-11T01:21:34.050Z,995.06
2019-02-11T01:22:34.042Z,995.09
2019-02-11T01:23:34.029Z,995.13
2019-02-11T01:24:34.019Z,995.14
2019-02-11T01:25:34.018Z,995.20
2019-02-11T01:26:33.998Z,995.20
2019-02-11T01:27:33.987Z,995.22
2019-02-11T01:28:33.975Z,995.22
2019-02-11T01:29:33.963Z,995.29
2019-02-11T01:30:33.963Z,995.32
2019-02-11T01:31:33.941Z,995.35
2019-02-11T01:32:33.931Z,995.40
2019-02-11T01:33:33.924Z,995.44
2019-02-11T01:34:33.908Z,995.45
2019-02-11T01:35:33.910Z,995.49
2019-02-11T01:36:33.891Z,995.47
2019-02-11T01:37:33.876Z,995.54
2019-02-11T01:38:33.865Z,995.57
2019-02-11T01:39:33.871Z,995.59
2019-02-11T01:40:33.912Z,995.58
2019-02-11T01:41:33.839Z,995.63
2019-02-11T01:42:33.822Z,995.62
2019-02-11T01:43:36.066Z,995.67
2019-02-11T01:44:33.799Z,995.76
2019-02-11T01:45:33.826Z,995.69
2019-02-11T01:46:33.776Z,995.70
2019-02-11T01:47:33.765Z,995.75
2019-02-11T01:48:33.754Z,995.68
2019-02-11T01:49:33.742Z,995.75
2019-02-11T01:50:33.764Z,995.76
2019-02-11T01:51:33.732Z,995.78
2019-02-11T01:52:33.710Z,995.77
2019-02-11T01:53:33.700Z,995.81
2019-02-11T01:54:33.688Z,995.83
2019-02-11T01:55:33.679Z,995.82
2019-02-11T01:56:33.679Z,995.78
2019-02-11T01:57:33.654Z,995.83
2019-02-11T01:58:33.645Z,995.83
2019-02-11T01:59:33.635Z,995.83
2019-02-11T02:00:33.624Z,995.93
2019-02-11T02:01:33.623Z,995.94
2019-02-11T02:02:33.610Z,995.94
2019-02-11T02:03:33.634Z,995.97
2019-02-11T02:04:33.577Z,995.95
2019-02-11T02:05:33.570Z,995.97
2019-02-11T02:06:33.568Z,995.98
2019-02-11T02:07:33.548Z,996.03
2019-02-11T02:08:33.537Z,996.07
2019-02-11T02:09:33.523Z,996.07
2019-02-11T02:10:33.511Z,996.14
2019-02-11T02:11:33.513Z,996.15
2019-02-11T02:12:33.491Z,996.14
2019-02-11T02:13:33.496Z,996.17
2019-02-11T02:14:33.472Z,996.19
2019-02-11T02:15:33.457Z,996.18
2019-02-11T02:16:33.458Z,996.18
2019-02-11T02:17:33.438Z,996.21
2019-02-11T02:18:33.422Z,996.22
2019-02-11T02:19:33.412Z,996.27
2019-02-11T02:20:33.406Z,996.31
2019-02-11T02:21:33.400Z,996.29
2019-02-11T02:22:33.379Z,996.36
2019-02-11T02:23:33.367Z,996.33
2019-02-11T02:24:33.357Z,996.38
2019-02-11T02:25:33.348Z,996.38
2019-02-11T02:26:33.349Z,996.41
2019-02-11T02:27:33.333Z,996.41
2019-02-11T02:28:33.313Z,996.43
2019-02-11T02:29:33.302Z,996.44
2019-02-11T02:30:33.294Z,996.42
2019-02-11T02:31:33.279Z,996.45
2019-02-11T02:32:33.281Z,996.43
2019-02-11T02:33:33.258Z,996.46
2019-02-11T02:34:33.247Z,996.43
2019-02-11T02:35:33.237Z,996.48
2019-02-11T02:36:33.240Z,996.51
2019-02-11T02:37:33.230Z,996.46
2019-02-11T02:38:33.204Z,996.48
2019-02-11T02:39:33.208Z,996.48
2019-02-11T02:40:33.180Z,996.47
2019-02-11T02:41:33.170Z,996.47
2019-02-11T02:42:33.174Z,996.48
2019-02-11T02:43:33.148Z,996.42
2019-02-11T02:44:33.138Z,996.57
2019-02-11T02:45:33.132Z,996.55
2019-02-11T02:46:33.116Z,996.58
2019-02-11T02:47:33.115Z,996.53
2019-02-11T02:48:33.093Z,996.57
2019-02-11T02:49:33.096Z,996.58
2019-02-11T02:50:33.069Z,996.63
2019-02-11T02:51:33.063Z,996.63
2019-02-11T02:52:33.059Z,996.66
2019-02-11T02:53:33.039Z,996.61
2019-02-11T02:54:33.027Z,996.64
2019-02-11T02:55:33.018Z,996.68
2019-02-11T02:56:33.004Z,996.66
2019-02-11T02:57:33.005Z,996.64
2019-02-11T02:58:32.983Z,996.73
2019-02-11T02:59:32.992Z,996.73
2019-02-11T03:00:32.962Z,996.80
2019-02-11T03:01:32.950Z,996.81
2019-02-11T03:02:32.949Z,996.85
2019-02-11T03:03:32.932Z,996.87
2019-02-11T03:04:32.918Z,996.88
2019-02-11T03:05:32.907Z,996.95
2019-02-11T03:06:32.898Z,996.93
2019-02-11T03:07:32.898Z,996.96
2019-02-11T03:08:32.873Z,997.01
2019-02-11T03:09:32.863Z,996.98
2019-02-11T03:10:32.852Z,997.10
2019-02-11T03:11:32.840Z,997.06
2019-02-11T03:12:32.858Z,997.11
2019-02-11T03:13:32.827Z,997.11
2019-02-11T03:14:32.808Z,997.15
2019-02-11T03:15:32.798Z,997.15
2019-02-11T03:16:32.787Z,997.13
2019-02-11T03:17:32.789Z,997.13
2019-02-11T03:18:32.763Z,997.13
2019-02-11T03:19:32.752Z,997.15
2019-02-11T03:20:32.743Z,997.22
2019-02-11T03:21:32.734Z,997.17
2019-02-11T03:22:32.743Z,997.18
2019-02-11T03:23:32.708Z,997.17
2019-02-11T03:24:32.698Z,997.21
2019-02-11T03:25:32.686Z,997.23
2019-02-11T03:26:32.677Z,997.23
2019-02-11T03:27:32.675Z,997.34
2019-02-11T03:28:32.654Z,997.29
2019-02-11T03:29:32.644Z,997.30
2019-02-11T03:30:32.635Z,997.37
2019-02-11T03:31:32.623Z,997.38
2019-02-11T03:32:32.621Z,997.39
2019-02-11T03:33:32.600Z,997.35
2019-02-11T03:34:32.603Z,997.43
2019-02-11T03:35:32.590Z,997.44
2019-02-11T03:36:32.570Z,997.49
2019-02-11T03:37:32.567Z,997.47
2019-02-11T03:38:32.544Z,997.44
2019-02-11T03:39:32.532Z,997.53
2019-02-11T03:40:32.525Z,997.52
2019-02-11T03:41:32.511Z,997.50
2019-02-11T03:42:32.532Z,997.53
2019-02-11T03:43:32.489Z,997.57
2019-02-11T03:44:32.479Z,997.59
2019-02-11T03:45:32.478Z,997.66
2019-02-11T03:46:32.482Z,997.66
2019-02-11T03:47:32.445Z,997.69
2019-02-11T03:48:32.457Z,997.72
2019-02-11T03:49:32.425Z,997.72
2019-02-11T03:50:32.413Z,997.76
2019-02-11T03:51:32.404Z,997.76
2019-02-11T03:52:32.390Z,997.79
2019-02-11T03:53:32.390Z,997.80
2019-02-11T03:54:32.368Z,997.83
2019-02-11T03:55:32.356Z,997.83
2019-02-11T03:56:32.347Z,997.87
2019-02-11T03:57:32.350Z,997.92
2019-02-11T03:58:32.351Z,997.92
2019-02-11T03:59:32.311Z,997.94
2019-02-11T04:00:32.314Z,997.93
2019-02-11T04:01:32.291Z,997.98
2019-02-11T04:02:32.280Z,998.01
2019-02-11T04:03:32.299Z,998.07
2019-02-11T04:04:32.258Z,998.05
2019-02-11T04:05:32.251Z,998.11
2019-02-11T04:06:32.239Z,998.12
2019-02-11T04:07:32.225Z,998.12
2019-02-11T04:08:32.248Z,998.17
2019-02-11T04:09:32.205Z,998.23
2019-02-11T04:10:32.197Z,998.27
2019-02-11T04:11:32.186Z,998.29
2019-02-11T04:12:32.169Z,998.33
2019-02-11T04:13:32.171Z,998.36
2019-02-11T04:14:32.148Z,998.40
2019-02-11T04:15:32.139Z,998.41
2019-02-11T04:16:32.131Z,998.41
2019-02-11T04:17:32.118Z,998.44
2019-02-11T04:18:32.138Z,998.45
2019-02-11T04:19:32.094Z,998.53
2019-02-11T04:20:32.083Z,998.52
2019-02-11T04:21:32.085Z,998.52
2019-02-11T04:22:32.063Z,998.57
2019-02-11T04:23:32.064Z,998.49
2019-02-11T04:24:32.039Z,998.53
2019-02-11T04:25:32.031Z,998.53
2019-02-11T04:26:32.017Z,998.55
2019-02-11T04:27:32.007Z,998.62
2019-02-11T04:28:32.046Z,998.58
2019-02-11T04:29:31.987Z,998.61
2019-02-11T04:30:31.972Z,998.67
2019-02-11T04:31:31.977Z,998.65
2019-02-11T04:32:31.950Z,998.65
2019-02-11T04:33:31.941Z,998.69
2019-02-11T04:34:31.949Z,998.76
2019-02-11T04:35:31.918Z,998.79
2019-02-11T04:36:31.909Z,998.81
2019-02-11T04:37:31.897Z,998.78
2019-02-11T04:38:31.890Z,998.81
2019-02-11T04:39:31.891Z,998.83
2019-02-11T04:40:31.863Z,998.86
2019-02-11T04:41:31.876Z,998.82
2019-02-11T04:42:31.844Z,998.90
2019-02-11T04:43:31.833Z,998.93
2019-02-11T04:44:34.019Z,998.99
2019-02-11T04:45:31.811Z,999.04
2019-02-11T04:46:31.799Z,999.08
2019-02-11T04:47:31.786Z,999.08
2019-02-11T04:48:31.775Z,999.15
2019-02-11T04:49:31.777Z,999.15
2019-02-11T04:50:31.755Z,999.20
2019-02-11T04:51:31.750Z,999.24
2019-02-11T04:52:31.732Z,999.21
2019-02-11T04:53:31.722Z,999.26
2019-02-11T04:54:31.742Z,999.17
2019-02-11T04:55:31.700Z,999.20
2019-02-11T04:56:31.689Z,999.22
2019-02-11T04:57:31.685Z,999.21
2019-02-11T04:58:31.670Z,999.29
2019-02-11T04:59:31.668Z,999.26
2019-02-11T05:00:31.646Z,999.28
2019-02-11T05:01:31.633Z,999.36
2019-02-11T05:02:31.623Z,999.37
2019-02-11T05:03:31.612Z,999.34
2019-02-11T05:04:31.624Z,999.43
2019-02-11T05:05:31.591Z,999.42
2019-02-11T05:06:31.581Z,999.45
2019-02-11T05:07:31.571Z,999.41
2019-02-11T05:08:31.557Z,999.45
2019-02-11T05:09:31.557Z,999.50
2019-02-11T05:10:31.537Z,999.50
2019-02-11T05:11:31.527Z,999.56
2019-02-11T05:12:31.512Z,999.59
2019-02-11T05:13:31.504Z,999.61
2019-02-11T05:14:31.502Z,999.63
2019-02-11T05:15:31.479Z,999.70
2019-02-11T05:16:31.469Z,999.70
2019-02-11T05:17:31.466Z,999.69
2019-02-11T05:18:31.450Z,999.72
2019-02-11T05:19:31.450Z,999.74
2019-02-11T05:20:31.425Z,999.76
2019-02-11T05:21:31.416Z,999.75
2019-02-11T05:22:31.405Z,999.78
2019-02-11T05:23:31.395Z,999.79
2019-02-11T05:24:31.391Z,999.89
2019-02-11T05:25:31.370Z,999.89
2019-02-11T05:26:31.360Z,999.87
2019-02-11T05:27:31.363Z,999.93
2019-02-11T05:28:31.358Z,1000.00
2019-02-11T05:29:31.356Z,1000.01
2019-02-11T05:30:31.316Z,1000.04
2019-02-11T05:31:32.754Z,1000.04
2019-02-11T05:32:31.293Z,999.98
2019-02-11T05:33:31.293Z,999.95
2019-02-11T05:34:31.277Z,1000.02
2019-02-11T05:35:31.274Z,1000.03
2019-02-11T05:36:31.250Z,1000.01
2019-02-11T05:37:31.240Z,1000.05
2019-02-11T05:38:31.228Z,1000.04
2019-02-11T05:39:31.228Z,999.97
2019-02-11T05:40:31.228Z,1000.08
2019-02-11T05:41:31.194Z,1000.00
2019-02-11T05:42:31.183Z,1000.06
2019-02-11T05:43:31.172Z,1000.09
2019-02-11T05:44:31.161Z,999.99
2019-02-11T05:45:31.162Z,1000.09
2019-02-11T05:46:31.139Z,1000.09
2019-02-11T05:47:31.129Z,1000.11
2019-02-11T05:48:31.117Z,1000.16
2019-02-11T05:49:31.107Z,1000.13
2019-02-11T05:50:31.112Z,1000.10
2019-02-11T05:51:31.086Z,1000.21
2019-02-11T05:52:31.076Z,1000.32
2019-02-11T05:53:31.062Z,1000.31
2019-02-11T05:54:31.051Z,1000.34
2019-02-11T05:55:31.053Z,1000.32
2019-02-11T05:56:31.029Z,1000.34
2019-02-11T05:57:31.023Z,1000.36
2019-02-11T05:58:31.012Z,1000.44
2019-02-11T05:59:30.997Z,1000.43
2019-02-11T06:00:30.997Z,1000.47
2019-02-11T06:01:30.973Z,1000.51
2019-02-11T06:02:30.968Z,1000.50
2019-02-11T06:03:30.953Z,1000.49
2019-02-11T06:04:30.941Z,1000.52
2019-02-11T06:05:30.941Z,1000.55
2019-02-11T06:06:30.920Z,1000.57
2019-02-11T06:07:30.908Z,1000.58
2019-02-11T06:08:30.897Z,1000.59
2019-02-11T06:09:30.888Z,1000.58
2019-02-11T06:10:30.885Z,1000.65
2019-02-11T06:11:30.865Z,1000.61
2019-02-11T06:12:37.866Z,1000.64
2019-02-11T06:13:30.863Z,1000.57
2019-02-11T06:14:37.858Z,1000.64
2019-02-11T06:15:37.844Z,1000.67
2019-02-11T06:16:37.833Z,1000.66
2019-02-11T06:17:30.799Z,1000.68
2019-02-11T06:18:30.796Z,1000.69
2019-02-11T06:19:30.778Z,1000.71
2019-02-11T06:20:30.790Z,1000.72
2019-02-11T06:21:30.756Z,1000.84
2019-02-11T06:22:30.744Z,1000.87
2019-02-11T06:23:30.733Z,1000.91
2019-02-11T06:24:30.722Z,1001.00
2019-02-11T06:25:30.722Z,1001.03
2019-02-11T06:26:30.701Z,1001.06
2019-02-11T06:27:30.689Z,1001.10
2019-02-11T06:28:30.678Z,1001.04
2019-02-11T06:29:30.667Z,1001.09
2019-02-11T06:30:30.670Z,1001.12
2019-02-11T06:31:30.646Z,1001.12
2019-02-11T06:32:30.635Z,1001.13
2019-02-11T06:33:30.622Z,1001.21
2019-02-11T06:34:30.611Z,1001.20
2019-02-11T06:35:30.614Z,1001.22
2019-02-11T06:36:30.589Z,1001.25
2019-02-11T06:37:30.579Z,1001.24
2019-02-11T06:38:30.579Z,1001.28
2019-02-11T06:39:30.560Z,1001.32
2019-02-11T06:40:30.559Z,1001.29
2019-02-11T06:41:30.535Z,1001.35
2019-02-11T06:42:30.523Z,1001.38
2019-02-11T06:43:30.516Z,1001.38
2019-02-11T06:44:30.502Z,1001.42
2019-02-11T06:45:30.522Z,1001.43
2019-02-11T06:46:30.482Z,1001.45
2019-02-11T06:47:30.469Z,1001.49
2019-02-11T06:48:30.459Z,1001.52
2019-02-11T06:49:30.451Z,1001.58
2019-02-11T06:50:30.436Z,1001.55
2019-02-11T06:51:30.437Z,1001.63
2019-02-11T06:52:30.414Z,1001.64
2019-02-11T06:53:30.405Z,1001.67
2019-02-11T06:54:30.392Z,1001.75
2019-02-11T06:55:30.404Z,1001.74
2019-02-11T06:56:30.381Z,1001.79
2019-02-11T06:57:30.366Z,1001.84
2019-02-11T06:58:30.349Z,1001.85
2019-02-11T06:59:30.337Z,1001.86
2019-02-11T07:00:30.326Z,1001.91
2019-02-11T07:01:30.325Z,1001.92
2019-02-11T07:02:30.331Z,1001.97
2019-02-11T07:03:30.291Z,1001.97
2019-02-11T07:04:30.282Z,1002.03
2019-02-11T07:05:30.271Z,1002.08
2019-02-11T07:06:30.271Z,1002.03
2019-02-11T07:07:30.252Z,1002.08
2019-02-11T07:08:30.272Z,1002.06
2019-02-11T07:09:30.229Z,1002.06
2019-02-11T07:10:30.216Z,1002.13
2019-02-11T07:11:30.216Z,1002.08
2019-02-11T07:12:30.196Z,1002.04
2019-02-11T07:13:30.184Z,1002.12
2019-02-11T07:14:30.173Z,1002.07
2019-02-11T07:15:30.161Z,1002.14
2019-02-11T07:16:30.160Z,1002.19
2019-02-11T07:17:30.148Z,1002.19
2019-02-11T07:18:30.128Z,1002.23
2019-02-11T07:19:30.118Z,1002.27
2019-02-11T07:20:30.105Z,1002.27
2019-02-11T07:21:30.106Z,1002.26
2019-02-11T07:22:30.085Z,1002.33
2019-02-11T07:23:30.072Z,1002.30
2019-02-11T07:24:30.061Z,1002.29
2019-02-11T07:25:30.051Z,1002.31
2019-02-11T07:26:30.051Z,1002.31
2019-02-11T07:27:30.028Z,1002.34
2019-02-11T07:28:30.019Z,1002.33
2019-02-11T07:29:30.008Z,1002.34
2019-02-11T07:30:29.995Z,1002.41
2019-02-11T07:31:30.010Z,1002.47
2019-02-11T07:32:29.973Z,1002.50
2019-02-11T07:33:29.963Z,1002.51
2019-02-11T07:34:29.951Z,1002.64
2019-02-11T07:35:29.949Z,1002.66
2019-02-11T07:36:29.942Z,1002.65
2019-02-11T07:37:29.919Z,1002.67
2019-02-11T07:38:29.931Z,1002.72
2019-02-11T07:39:29.910Z,1002.69
2019-02-11T07:40:29.888Z,1002.69
2019-02-11T07:41:29.903Z,1002.70
2019-02-11T07:42:29.866Z,1002.71
2019-02-11T07:43:29.853Z,1002.69
2019-02-11T07:44:29.842Z,1002.76
2019-02-11T07:45:30.397Z,1002.74
2019-02-11T07:46:29.849Z,1002.81
2019-02-11T07:47:29.809Z,1002.86
2019-02-11T07:48:29.798Z,1002.88
2019-02-11T07:49:29.786Z,1002.90
2019-02-11T07:50:29.795Z,1002.93
2019-02-11T07:51:29.767Z,1002.93
2019-02-11T07:52:29.765Z,1002.88
2019-02-11T07:53:29.742Z,1002.97
2019-02-11T07:54:29.747Z,1002.99
2019-02-11T07:55:29.720Z,1002.96
2019-02-11T07:56:29.714Z,1002.95
2019-02-11T07:57:29.708Z,1003.01
2019-02-11T07:58:29.686Z,1003.05
2019-02-11T07:59:29.676Z,1003.10
2019-02-11T08:00:29.670Z,1003.09
2019-02-11T08:01:29.654Z,1003.13
2019-02-11T08:02:29.661Z,1003.08
2019-02-11T08:03:29.671Z,1003.13
2019-02-11T08:04:29.642Z,1003.27
2019-02-11T08:05:29.610Z,1003.19
2019-02-11T08:06:29.600Z,1003.16
2019-02-11T08:07:29.599Z,1003.23
2019-02-11T08:08:29.578Z,1003.25
2019-02-11T08:09:29.567Z,1003.24
2019-02-11T08:10:29.556Z,1003.30
2019-02-11T08:11:29.545Z,1003.29
2019-02-11T08:12:29.547Z,1003.33
2019-02-11T08:13:29.524Z,1003.38
2019-02-11T08:14:29.512Z,1003.36
2019-02-11T08:15:29.514Z,1003.34
2019-02-11T08:16:29.488Z,1003.40
2019-02-11T08:17:29.511Z,1003.36
2019-02-11T08:18:29.476Z,1003.46
2019-02-11T08:19:29.468Z,1003.46
2019-02-11T08:20:29.446Z,1003.52
2019-02-11T08:21:29.433Z,1003.55
2019-02-11T08:22:29.436Z,1003.63
2019-02-11T08:23:29.412Z,1003.56
2019-02-11T08:24:29.400Z,1003.57
2019-02-11T08:25:29.392Z,1003.63
2019-02-11T08:26:29.379Z,1003.70
2019-02-11T08:27:29.397Z,1003.73
2019-02-11T08:28:29.360Z,1003.67
2019-02-11T08:29:29.346Z,1003.69
2019-02-11T08:30:29.337Z,1003.72
2019-02-11T08:31:29.324Z,1003.78
2019-02-11T08:32:29.326Z,1003.79
2019-02-11T08:33:30.504Z,1003.84
2019-02-11T08:34:29.291Z,1003.78
2019-02-11T08:35:29.282Z,1003.84
2019-02-11T08:36:29.268Z,1003.85
2019-02-11T08:37:29.321Z,1003.85
2019-02-11T08:38:29.248Z,1003.90
2019-02-11T08:39:29.239Z,1003.87
2019-02-11T08:40:29.237Z,1003.91
2019-02-11T08:41:29.215Z,1003.86
2019-02-11T08:42:29.204Z,1003.91
2019-02-11T08:43:29.202Z,1003.90
2019-02-11T08:44:29.180Z,1003.93
2019-02-11T08:45:29.171Z,1004.01
2019-02-11T08:46:29.177Z,1004.00
2019-02-11T08:47:29.151Z,1003.99
2019-02-11T08:48:29.150Z,1004.00
2019-02-11T08:49:30.119Z,1004.02
2019-02-11T08:50:29.137Z,1004.08
2019-02-11T08:51:29.115Z,1004.06
2019-02-11T08:52:29.148Z,1004.08
2019-02-11T08:53:29.123Z,1004.10
2019-02-11T08:54:29.073Z,1004.08
2019-02-11T08:55:29.060Z,1004.17
2019-02-11T08:56:29.055Z,1004.20
2019-02-11T08:57:29.038Z,1004.15
2019-02-11T08:58:29.049Z,1004.23
2019-02-11T08:59:29.018Z,1004.21
2019-02-11T09:00:29.006Z,1004.22
2019-02-11T09:01:28.995Z,1004.20
2019-02-11T09:02:28.986Z,1004.22
2019-02-11T09:03:28.993Z,1004.20
2019-02-11T09:04:28.962Z,1004.32
2019-02-11T09:05:28.956Z,1004.30
2019-02-11T09:06:28.939Z,1004.34
2019-02-11T09:07:28.930Z,1004.35
2019-02-11T09:08:28.929Z,1004.33
2019-02-11T09:09:28.910Z,1004.33
2019-02-11T09:10:28.898Z,1004.38
2019-02-11T09:11:28.884Z,1004.40
2019-02-11T09:12:28.887Z,1004.37
2019-02-11T09:13:28.886Z,1004.40
2019-02-11T09:14:30.640Z,1004.45
2019-02-11T09:15:28.841Z,1004.50
2019-02-11T09:16:28.831Z,1004.48
2019-02-11T09:17:28.840Z,1004.50
2019-02-11T09:18:28.818Z,1004.53
2019-02-11T09:19:28.798Z,1004.54
2019-02-11T09:20:28.786Z,1004.57
2019-02-11T09:21:28.776Z,1004.58
2019-02-11T09:22:28.769Z,1004.56
2019-02-11T09:23:28.766Z,1004.58
2019-02-11T09:24:28.741Z,1004.61
2019-02-11T09:25:28.729Z,1004.61
2019-02-11T09:26:28.719Z,1004.67
2019-02-11T09:27:28.710Z,1004.66
2019-02-11T09:28:28.708Z,1004.74
2019-02-11T09:29:28.687Z,1004.76
2019-02-11T09:30:28.701Z,1004.69
2019-02-11T09:31:28.665Z,1004.73
2019-02-11T09:32:28.654Z,1004.72
2019-02-11T09:33:28.664Z,1004.71
2019-02-11T09:34:28.631Z,1004.78
2019-02-11T09:35:28.621Z,1004.84
2019-02-11T09:36:28.626Z,1004.85
2019-02-11T09:37:28.598Z,1004.90
2019-02-11T09:38:28.595Z,1004.92
2019-02-11T09:39:28.586Z,1004.94
2019-02-11T09:40:28.573Z,1004.95
2019-02-11T09:41:28.557Z,1004.92
2019-02-11T09:42:28.543Z,1004.96
2019-02-11T09:43:28.536Z,1005.00
2019-02-11T09:44:29.891Z,1005.03
2019-02-11T09:45:28.513Z,1004.94
2019-02-11T09:46:28.544Z,1005.01
2019-02-11T09:47:28.487Z,1005.03
2019-02-11T09:48:28.477Z,1005.04
2019-02-11T09:49:28.488Z,1005.04
2019-02-11T09:50:28.477Z,1005.02
2019-02-11T09:51:28.464Z,1005.06
2019-02-11T09:52:28.463Z,1005.08
2019-02-11T09:53:28.426Z,1005.12
2019-02-11T09:54:28.423Z,1005.18
2019-02-11T09:55:28.400Z,1005.19
2019-02-11T09:56:28.388Z,1005.26
2019-02-11T09:57:28.380Z,1005.26
2019-02-11T09:58:28.367Z,1005.29
2019-02-11T09:59:28.392Z,1005.33
2019-02-11T10:00:28.345Z,1005.36
2019-02-11T10:01:28.333Z,1005.37
2019-02-11T10:02:28.339Z,1005.42
2019-02-11T10:03:28.313Z,1005.48
2019-02-11T10:04:28.315Z,1005.55
2019-02-11T10:05:28.289Z,1005.55
2019-02-11T10:06:28.279Z,1005.63
2019-02-11T10:07:28.341Z,1005.64
2019-02-11T10:08:28.259Z,1005.57
2019-02-11T10:09:28.256Z,1005.63
2019-02-11T10:10:28.236Z,1005.66
2019-02-11T10:11:28.223Z,1005.62
2019-02-11T10:12:28.215Z,1005.59
2019-02-11T10:13:28.200Z,1005.70
2019-02-11T10:14:28.212Z,1005.72
2019-02-11T10:15:28.182Z,1005.72
2019-02-11T10:16:28.170Z,1005.76
2019-02-11T10:17:29.810Z,1005.87
2019-02-11T10:18:28.145Z,1005.86
2019-02-11T10:19:28.167Z,1005.91
2019-02-11T10:20:28.135Z,1005.95
2019-02-11T10:21:28.111Z,1005.97
2019-02-11T10:22:28.116Z,1006.02
2019-02-11T10:23:28.095Z,1006.00
2019-02-11T10:24:28.081Z,1006.05
2019-02-11T10:25:28.080Z,1006.13
2019-02-11T10:26:28.060Z,1006.09
2019-02-11T10:27:28.047Z,1006.04
2019-02-11T10:28:28.036Z,1006.12
2019-02-11T10:29:28.025Z,1006.04
2019-02-11T10:30:28.024Z,1006.13
2019-02-11T10:31:28.002Z,1006.17
2019-02-11T10:32:27.990Z,1006.16
2019-02-11T10:33:27.982Z,1006.20
2019-02-11T10:34:27.970Z,1006.21
2019-02-11T10:35:27.990Z,1006.14
2019-02-11T10:36:27.949Z,1006.22
2019-02-11T10:37:27.936Z,1006.28
2019-02-11T10:38:36.102Z,1006.21
2019-02-11T10:39:28.911Z,1006.26
2019-02-11T10:40:27.913Z,1006.30
2019-02-11T10:41:27.890Z,1006.31
2019-02-11T10:42:27.880Z,1006.32
2019-02-11T10:43:27.869Z,1006.26
2019-02-11T10:44:27.859Z,1006.33
2019-02-11T10:45:36.224Z,1006.33
2019-02-11T10:46:28.840Z,1006.41
2019-02-11T10:47:27.826Z,1006.36
2019-02-11T10:48:27.816Z,1006.35
2019-02-11T10:49:27.841Z,1006.42
2019-02-11T10:50:27.804Z,1006.44
2019-02-11T10:51:27.790Z,1006.41
2019-02-11T10:52:27.771Z,1006.48
2019-02-11T10:53:27.765Z,1006.48
2019-02-11T10:54:27.752Z,1006.54
2019-02-11T10:55:27.776Z,1006.54
2019-02-11T10:56:27.724Z,1006.48
2019-02-11T10:57:27.714Z,1006.50
2019-02-11T10:58:27.702Z,1006.49
2019-02-11T10:59:27.699Z,1006.58
2019-02-11T11:00:27.681Z,1006.55
2019-02-11T11:01:27.681Z,1006.61
2019-02-11T11:02:27.661Z,1006.56
2019-02-11T11:03:27.651Z,1006.55
2019-02-11T11:04:27.637Z,1006.58
2019-02-11T11:05:27.626Z,1006.58
2019-02-11T11:06:27.625Z,1006.58
2019-02-11T11:07:27.603Z,1006.63
2019-02-11T11:08:27.609Z,1006.64
2019-02-11T11:09:27.582Z,1006.72
2019-02-11T11:10:27.577Z,1006.69
2019-02-11T11:11:27.570Z,1006.74
2019-02-11T11:12:27.551Z,1006.75
2019-02-11T11:13:27.539Z,1006.78
2019-02-11T11:14:27.531Z,1006.86
2019-02-11T11:15:28.967Z,1006.78
2019-02-11T11:16:29.720Z,1006.80
2019-02-11T11:17:27.501Z,1006.84
2019-02-11T11:18:27.484Z,1006.84
2019-02-11T11:19:27.472Z,1006.84
2019-02-11T11:20:27.477Z,1006.83
2019-02-11T11:21:27.462Z,1006.84
2019-02-11T11:22:27.438Z,1006.80
2019-02-11T11:23:27.428Z,1006.82
2019-02-11T11:24:27.416Z,1006.79
2019-02-11T11:25:27.407Z,1006.81
2019-02-11T11:26:27.406Z,1006.80
2019-02-11T11:27:27.387Z,1006.88
2019-02-11T11:28:27.371Z,1006.82
2019-02-11T11:29:27.366Z,1006.86
2019-02-11T11:30:27.394Z,1006.90
2019-02-11T11:31:27.371Z,1006.92
2019-02-11T11:32:27.329Z,1006.92
2019-02-11T11:33:27.317Z,1006.95
2019-02-11T11:34:27.304Z,1006.92
2019-02-11T11:35:27.294Z,1006.93
2019-02-11T11:36:27.294Z,1006.90
2019-02-11T11:37:27.272Z,1006.98
2019-02-11T11:38:27.263Z,1006.93
2019-02-11T11:39:27.250Z,1006.91
2019-02-11T11:40:27.239Z,1006.90
2019-02-11T11:41:27.256Z,1006.91
2019-02-11T11:42:28.499Z,1006.87
2019-02-11T11:43:27.210Z,1006.91
2019-02-11T11:44:27.195Z,1006.86
2019-02-11T11:45:27.933Z,1006.92
2019-02-11T11:46:27.193Z,1006.95
2019-02-11T11:47:27.162Z,1006.91
2019-02-11T11:48:27.150Z,1006.97
2019-02-11T11:49:27.139Z,1006.95
2019-02-11T11:50:27.128Z,1007.03
2019-02-11T11:51:27.131Z,1007.22
2019-02-11T11:52:27.109Z,1007.46
2019-02-11T11:53:27.095Z,1007.45
2019-02-11T11:54:27.104Z,1007.54
2019-02-11T11:55:27.097Z,1007.60
2019-02-11T11:56:27.075Z,1007.64
2019-02-11T11:57:27.065Z,1007.65
2019-02-11T11:58:27.350Z,1007.62
2019-02-11T11:59:27.042Z,1007.63
2019-02-11T12:00:27.045Z,1007.71
2019-02-11T12:01:27.047Z,1007.65
2019-02-11T12:02:26.999Z,1007.70
2019-02-11T12:03:26.987Z,1007.71
2019-02-11T12:04:26.978Z,1007.75
2019-02-11T12:05:26.970Z,1007.74
2019-02-11T12:06:26.963Z,1007.74
2019-02-11T12:07:26.959Z,1007.76
2019-02-11T12:08:26.933Z,1007.80
2019-02-11T12:09:26.918Z,1007.86
2019-02-11T12:10:26.916Z,1007.89
2019-02-11T12:11:26.896Z,1007.85
2019-02-11T12:12:26.896Z,1007.86
2019-02-11T12:13:26.887Z,1007.93
2019-02-11T12:14:26.876Z,1007.92
2019-02-11T12:15:27.288Z,1008.03